Logo AVAMET
Benvolgut visitant, si us plau, ingressa Recuperar contrasenya

Xiva Calicanto

Dades diàries. Acumulats / Últims 30 dies disponibles

Data Temperatura (°C) Humitat rel. (%) Pressió rel. (hPa) Vent (km/h) Precipitació
Mínima Mitjana Màxima Amplitud
tèrmica
Mínima Mitjana Màxima Mínima Mitjana Màxima Predom. Mitjana Ràfega
màxima
Total
(mm)
Índex-n
Mínima Mitjana Màxima Mínima Mitjana Màxima n
0 a 1
P0 max
mm 5'
Dades mensuals acumulades fins l'últim dia disponible
11/2019 8,6 13,6 19,5 16,8 15,9 20,5 27,8 19,2 22 52 75 999 1.010 1.019   12,6 64,4 0,0
Dades anuals acumulades fins l'últim dia disponible
2019 3,2 15,0 26,1 19,0 11,4 24,1 40,6 37,4 11 62 97 992 1.016 1.035   5,3 74,0 312,1
Últims 30 dies disponibles
11-11-2019 8,6     13,2     17,2 8,6 35 48 57 1.010 1.012 1.014 O 9,4 43,5 0,0
10-11-2019 10,0     12,9     16,3 6,3 32 47 71 1.010 1.012 1.014 O 11,4 43,5 0,0
09-11-2019 11,4     14,2     17,9 6,5 36 46 69 1.013 1.016 1.018 O 12,8 45,1 0,0
08-11-2019 9,1     12,4     15,9 6,8 36 48 63 1.008 1.012 1.016 O 13,6 59,5 0,0
07-11-2019 12,3     15,5     20,5 8,2 22 53 69 1.006 1.008 1.012 O 12,7 49,9 0,0
06-11-2019 12,3     15,9     20,6 8,3 30 47 62 1.010 1.012 1.013 OSO 10,7 37,0 0,0
05-11-2019 13,7     16,3     18,8 5,1 39 53 69 1.004 1.008 1.011 O 13,3 53,1 0,0
04-11-2019 16,5     19,3     22,5 6,0 44 56 68 1.005 1.008 1.010 OSO 13,6 57,9 0,0
03-11-2019 17,3     19,8     23,1 5,8 31 52 75 999 1.003 1.009 O 17,0 64,4 0,0
02-11-2019 19,5     21,9     25,2 5,7 44 60 70 1.002 1.007 1.012 O 13,2 46,7 0,0
01-11-2019 19,2     22,9     27,8 8,6 43 61 71 1.012 1.015 1.019 OSO 10,6 38,6 0,0
31-10-2019 19,5     22,8     26,7 7,2 43 55 71 1.017 1.019 1.020 SO 6,7 32,2 0,0
30-10-2019 15,9     20,1     25,4 9,5 48 68 87 1.018 1.019 1.021 SSO 3,6 17,7 0,0
29-10-2019 14,6     18,5     24,9 10,3 54 79 93 1.014 1.016 1.019 SE 2,1 16,1 0,0
28-10-2019 14,2     17,0     20,6 6,4 74 85 93 1.015 1.017 1.020 ESE 1,4 20,9 0,0
27-10-2019 14,0     17,5     22,3 8,3 65 83 91 1.019 1.020 1.022 ESE 1,5 12,9 0,0
26-10-2019 12,7     17,7     22,4 9,7 56 71 89 1.019 1.020 1.022 ESE 2,1 14,5 0,0
25-10-2019 14,3     17,9     23,9 9,6 43 60 74 1.019 1.021 1.022 S 5,7 22,5 0,0
24-10-2019 12,1     16,2     21,7 9,6 42 58 76 1.010 1.015 1.021 OSO 8,5 29,0 0,0
23-10-2019 11,6     13,8     18,0 6,4 50 67 79 1.004 1.007 1.011 OSO 9,3 37,0 0,0
22-10-2019 12,2     13,1     15,1 2,9 70 83 92 1.004 1.010 1.017 O 8,0 33,8 15,5 0,31 0,60
21-10-2019 11,0     15,0     20,2 9,2 44 67 80 1.014 1.016 1.018 S 5,3 30,6 0,0
20-10-2019 14,3     17,5     20,3 6,0 51 65 85 1.004 1.008 1.014 OSO 6,5 38,6 2,0
19-10-2019 19,2     21,8     27,1 7,9 39 60 72 1.005 1.008 1.012 SSO 6,8 33,8 0,0
18-10-2019 19,4     22,6     26,8 7,4 44 55 63 1.012 1.014 1.016 OSO 9,7 35,4 0,0
17-10-2019 17,2     21,3     26,4 9,2 31 42 60 1.014 1.015 1.017 SO 10,0 37,0 0,0
16-10-2019 15,2     19,5     24,8 9,6 27 38 46 1.014 1.017 1.020 SO 10,8 30,6 0,0
15-10-2019 13,3     18,0     23,9 10,6 25 46 64 1.013 1.016 1.019 SSO 10,3 46,7 0,0
14-10-2019 19,1     20,9     23,9 4,8 44 83 94 1.009 1.013 1.016 ESE 3,1 37,0 1,5
13-10-2019 19,4     21,8     26,6 7,2 63 84 93 1.015 1.016 1.017 ENE 1,3 14,5 0,0
Últims 13 mesos disponibles
10/2019 11,0 16,4 19,9 19,9 15,1 24,9 33,7 22,7 38 67 85 1.007 1.015 1.021 OSO 4,9 46,7 19,0
09/2019 14,9 19,6 22,6 23,2 19,4 27,7 33,2 18,3 36 71 86 1.009 1.016 1.024 SE 4,4 51,5 71,9
08/2019 16,9 21,9 26,1 26,1 26,1 31,5 40,6 23,7 37 68 80 1.009 1.014 1.019 E 3,5 46,7 46,6
07/2019 21,0 22,2 24,3 26,5 27,4 32,0 37,9 16,9 43 64 78 1.004 1.013 1.020 ENE 3,6 46,7 10,4
06/2019 13,5 18,0 24,6 22,7 21,8 28,0 37,2 23,7 35 60 78 1.007 1.014 1.021 ESE 4,2 62,8 0,2
05/2019 10,6 14,2 19,9 18,4 18,8 23,6 31,1 20,5 49 65 87 1.004 1.014 1.023 ESE 4,4 57,9 10,7
04/2019 8,4 11,2 13,8 14,9 14,0 19,5 28,8 20,4 33 65 95 999 1.012 1.024 SSO 7,2 51,5 129,3
03/2019 7,7 10,4 15,7 14,7 11,4 20,1 27,7 20,0 32 54 90 1.009 1.022 1.029 SSE 5,0 74,0 23,8
02/2019 4,8 8,3 14,4 12,4 11,9 18,0 26,3 21,5 36 61 79 994 1.024 1.033 SSE 5,5 74,0 0,2
01/2019 3,2 7,6 11,5 11,4 11,6 16,1 20,7 17,5 34 54 75 1.001 1.018 1.030 SO 7,8 61,2 0,0
12/2018 5,9 9,9 13,9 13,3 14,4 17,8 22,8 16,9 40 65 85 1.008 1.024 1.030 SO 7,2 56,3 11,1
11/2018 8,1 11,7 15,3 14,2 13,6 17,7 24,1 16,0 50 72 96 1.001 1.014 1.023 SSO 6,6 70,8 114,4
10/2018 6,7 15,1 19,3 18,1 12,8 22,5 29,5 22,8 46 71 91 999 1.013 1.024 3,9 57,9 110,1
Tots els anys disponibles
2018 0,9 14,6 27,1 18,1 7,6 22,8 37,3 36,4 35 66 96 991 1.015 1.032 OSO 5,4 74,0 584,1
Temperatura (°C)
Humitat relativa (%)
Velocitat del vent i ràfega màxima (km/h)
Direcció del vent (°)
Pressió (hPa)
Precipitació (mm)
Nota sobre les dades: s'avisa a l'usuari de la provisionalitat i no oficialitat d'aquestes dades
Logo AVAMET blanc
Web allotjada a Sollutia
Llicència de Creative CommonsLa web d'AVAMET i els seus continguts estan subjectes a una llicència de
Reconeixement - No Comercial - Compartir igual
Últimes estacions: Xàbia - Alt de la Granadella (Soci), Villena - Sierra de Salinas (Soci), Sueca - Centre (Inforatge), Xàbia - La Plana (Soci), Banyeres de Mariola - Molí Sol (Soci), Villena - Villa Ventín (Soci), Benissa - Convent (Soci), - - -